Time;durP1;ratioP1;P1;durP2;ratioP2;P2;SDS_P1;SDS_P2;PMS_P1;PMS_P2;Temp;Humidity;BMP_temperature;BMP_pressure;BME280_temperature;BME280_humidity;BME280_pressure;Samples;Min_cycle;Max_cycle;Signal;HPM_P1;HPM_P2
2022/09/12 06:01:18;;;;;;;14.60;11.68;;;;;;;12.72;100.00;99316.09;1726906;81;21046;-44
2022/09/12 06:03:47;;;;;;;16.85;13.20;;;;;;;12.78;100.00;99310.69;1731402;81;21022;-45
2022/09/12 06:06:17;;;;;;;15.98;13.28;;;;;;;12.86;100.00;99314.42;1723545;81;21400;-38
2022/09/12 06:08:46;;;;;;;20.80;13.48;;;;;;;12.93;100.00;99308.56;1735443;80;21594;-37
2022/09/12 06:11:21;;;;;;;16.17;12.63;;;;;;;13.02;100.00;99299.16;1734406;81;20988;-37
2022/09/12 06:13:49;;;;;;;15.85;13.48;;;;;;;13.14;100.00;99305.86;1725294;80;21637;-45
2022/09/12 06:16:23;;;;;;;15.50;12.80;;;;;;;13.25;100.00;99295.97;1731390;81;21057;-45
2022/09/12 06:18:56;;;;;;;16.95;14.40;;;;;;;13.39;100.00;99300.38;1732728;81;21518;-38
2022/09/12 06:21:25;;;;;;;17.35;12.93;;;;;;;13.54;100.00;99295.17;1727758;81;21354;-45
2022/09/12 06:23:55;;;;;;;15.43;13.62;;;;;;;13.68;100.00;99289.52;1728409;81;21046;-37
2022/09/12 06:26:24;;;;;;;17.12;14.13;;;;;;;13.80;100.00;99288.73;1670699;83;21837;-37
2022/09/12 06:28:50;;;;;;;16.77;13.70;;;;;;;13.95;100.00;99297.92;1677612;83;21492;-37
2022/09/12 06:31:22;;;;;;;15.63;13.55;;;;;;;14.09;100.00;99301.48;1681354;83;21612;-45
2022/09/12 06:33:50;;;;;;;17.65;13.55;;;;;;;14.16;100.00;99302.16;1687789;83;21071;-37
2022/09/12 06:36:28;;;;;;;16.62;13.62;;;;;;;14.20;100.00;99297.19;1730481;81;21520;-37
2022/09/12 06:38:59;;;;;;;17.32;13.80;;;;;;;14.26;100.00;99302.26;1731938;81;21013;-37
2022/09/12 06:41:26;;;;;;;16.45;13.90;;;;;;;14.27;100.00;99297.43;1724019;81;20987;-38
2022/09/12 06:43:53;;;;;;;15.45;13.80;;;;;;;14.28;100.00;99301.78;1725190;81;21068;-45
2022/09/12 06:46:20;;;;;;;16.70;14.10;;;;;;;14.32;100.00;99304.70;1734247;81;21264;-37
2022/09/12 06:48:47;;;;;;;16.82;14.68;;;;;;;14.35;100.00;99300.67;1728899;81;21106;-37
2022/09/12 06:51:15;;;;;;;19.52;14.10;;;;;;;14.37;100.00;99296.21;1727538;81;21440;-44
2022/09/12 06:53:43;;;;;;;16.62;13.45;;;;;;;14.40;100.00;99296.59;1727491;80;21102;-43
2022/09/12 06:56:13;;;;;;;15.45;13.10;;;;;;;14.45;100.00;99285.47;1729956;81;20929;-44
2022/09/12 06:58:40;;;;;;;15.00;13.22;;;;;;;14.50;100.00;99289.71;1728522;80;21011;-44
2022/09/12 07:01:11;;;;;;;18.20;12.30;;;;;;;14.56;100.00;99293.92;1713687;81;21003;-36
2022/09/12 07:03:38;;;;;;;14.45;12.33;;;;;;;14.61;100.00;99302.08;1710184;80;21461;-36
2022/09/12 07:06:10;;;;;;;12.98;11.65;;;;;;;14.66;100.00;99305.84;1715665;82;21018;-38
2022/09/12 07:08:38;;;;;;;14.58;12.33;;;;;;;14.73;100.00;99311.34;1716888;81;21456;-36
2022/09/12 07:11:19;;;;;;;17.52;13.03;;;;;;;14.81;100.00;99321.16;1719940;82;20924;-36
2022/09/12 07:13:48;;;;;;;13.25;11.57;;;;;;;14.85;100.00;99308.31;1717930;82;21634;-36
2022/09/12 07:16:14;;;;;;;13.53;12.13;;;;;;;14.92;100.00;99314.23;1727144;82;20995;-44
2022/09/12 07:18:42;;;;;;;13.65;12.07;;;;;;;14.95;100.00;99307.53;1710402;81;21080;-44
2022/09/12 07:21:13;;;;;;;14.75;12.75;;;;;;;14.96;100.00;99309.70;1715488;82;20997;-45
2022/09/12 07:23:40;;;;;;;16.77;13.80;;;;;;;14.99;100.00;99310.94;1721742;82;21368;-45
2022/09/12 07:26:09;;;;;;;15.10;12.80;;;;;;;15.02;100.00;99313.48;1721663;82;21431;-37
2022/09/12 07:28:36;;;;;;;15.08;13.35;;;;;;;15.06;100.00;99305.39;1723698;82;21028;-37
2022/09/12 07:31:16;;;;;;;15.50;12.70;;;;;;;15.13;100.00;99307.36;1712567;82;20988;-38
2022/09/12 07:33:43;;;;;;;14.18;12.68;;;;;;;15.22;100.00;99307.06;1717306;81;21383;-37
2022/09/12 07:42:19;;;;;;;13.10;11.75;;;;;;;15.63;100.00;99311.36;1713248;82;20945;-37
2022/09/12 07:45:04;;;;;;;13.38;11.53;;;;;;;15.73;100.00;99312.75;1721554;82;21010;-37
2022/09/12 07:47:37;;;;;;;13.90;11.12;;;;;;;15.80;100.00;99308.11;1729326;82;21613;-37
2022/09/12 07:50:21;;;;;;;13.13;11.33;;;;;;;15.90;100.00;99307.72;1734561;82;20979;-44
2022/09/12 07:52:49;;;;;;;13.08;11.70;;;;;;;16.08;100.00;99303.98;1725657;80;21057;-45
2022/09/12 07:55:15;;;;;;;13.43;12.03;;;;;;;16.22;100.00;99313.53;1725216;82;21059;-45
2022/09/12 07:57:42;;;;;;;13.50;11.85;;;;;;;16.29;100.00;99304.45;1729495;80;21046;-37
2022/09/12 08:00:10;;;;;;;13.78;12.35;;;;;;;16.43;100.00;99299.52;1731886;82;21036;-38
2022/09/12 08:02:40;;;;;;;11.50;10.30;;;;;;;16.55;100.00;99309.19;1714000;81;21063;-45
2022/09/12 08:05:07;;;;;;;10.53;9.48;;;;;;;16.62;100.00;99308.88;1715393;82;21859;-46
2022/09/12 08:07:33;;;;;;;12.60;9.83;;;;;;;16.66;100.00;99309.63;1733090;81;21459;-45
2022/09/12 08:10:01;;;;;;;10.82;9.78;;;;;;;16.65;100.00;99302.16;1733750;81;21097;-37
2022/09/12 08:12:28;;;;;;;12.85;9.98;;;;;;;16.67;100.00;99300.77;1737889;81;21971;-45
2022/09/12 08:14:54;;;;;;;11.15;9.95;;;;;;;16.72;100.00;99302.34;1734397;81;21003;-46
2022/09/12 08:17:21;;;;;;;11.78;10.58;;;;;;;16.74;98.91;99295.66;1718827;79;21075;-37
2022/09/12 08:19:47;;;;;;;10.78;9.68;;;;;;;16.73;98.96;99296.59;1739024;81;21466;-37
2022/09/12 08:22:14;;;;;;;11.57;10.20;;;;;;;16.74;98.51;99295.20;1730506;81;22843;-36
2022/09/12 08:24:41;;;;;;;11.18;10.08;;;;;;;16.79;98.39;99287.56;1732089;81;21019;-44
2022/09/12 08:27:09;;;;;;;11.90;10.53;;;;;;;16.86;98.33;99283.27;1730420;80;20979;-45
2022/09/12 08:29:36;;;;;;;10.65;9.63;;;;;;;16.99;98.96;99285.82;1736108;81;21381;-38
2022/09/12 08:32:02;;;;;;;11.55;10.40;;;;;;;17.14;97.41;99288.25;1713846;81;21005;-45
2022/09/12 08:34:30;;;;;;;11.30;10.10;;;;;;;17.17;95.96;99283.32;1695163;82;21241;-45
2022/09/12 08:36:56;;;;;;;14.95;11.50;;;;;;;17.21;96.27;99281.78;1693750;83;21031;-45
2022/09/12 08:39:26;;;;;;;11.22;10.00;;;;;;;17.29;96.83;99282.79;1699419;83;21589;-45
2022/09/12 08:42:01;;;;;;;11.57;10.40;;;;;;;17.34;96.29;99275.98;1697335;82;20972;-45
2022/09/12 08:44:46;;;;;;;11.53;10.38;;;;;;;17.37;95.86;99276.69;1704882;81;21344;-44
2022/09/12 08:47:26;;;;;;;13.25;11.93;;;;;;;17.40;95.19;99269.97;1737495;80;20967;-46
2022/09/12 08:50:14;;;;;;;11.83;10.63;;;;;;;17.44;94.86;99269.34;1735550;81;20996;-37
2022/09/12 08:53:03;;;;;;;11.60;10.40;;;;;;;17.43;95.08;99268.95;1682590;83;21571;-38
2022/09/12 08:55:41;;;;;;;12.15;10.93;;;;;;;17.36;95.09;99267.05;1682239;84;21081;-37
2022/09/12 08:58:17;;;;;;;11.55;10.35;;;;;;;17.33;94.64;99260.56;1680752;83;21027;-37
2022/09/12 09:01:20;;;;;;;11.12;9.95;;;;;;;17.27;95.04;99262.15;1636304;86;21053;-38
2022/09/12 09:04:11;;;;;;;10.93;9.90;;;;;;;17.23;94.90;99261.45;1640646;85;21101;-37
2022/09/12 09:07:16;;;;;;;14.90;10.78;;;;;;;17.18;95.63;99266.53;1662681;85;21112;-37
2022/09/12 09:10:20;;;;;;;10.93;9.88;;;;;;;17.16;96.10;99256.03;1634011;86;21658;-45
2022/09/12 09:13:01;;;;;;;14.25;12.50;;;;;;;17.18;95.31;99255.50;1634834;86;21045;-45
2022/09/12 09:15:51;;;;;;;11.78;10.18;;;;;;;17.22;95.37;99257.52;1660805;85;21139;-44
2022/09/12 09:18:22;;;;;;;9.23;8.15;;;;;;;17.33;94.13;99259.23;1652956;85;21021;-38
2022/09/12 09:20:59;;;;;;;8.63;7.83;;;;;;;17.46;93.30;99257.80;1655599;85;21065;-38
2022/09/12 09:23:36;;;;;;;8.05;6.72;;;;;;;17.53;91.67;99267.16;1652524;85;21085;-39
2022/09/12 09:26:15;;;;;;;10.23;9.20;;;;;;;17.60;90.38;99261.59;1592044;86;21469;-45
2022/09/12 09:28:50;;;;;;;9.75;8.80;;;;;;;17.56;90.57;99267.47;1671631;82;21399;-37
2022/09/12 09:31:22;;;;;;;10.80;9.70;;;;;;;17.60;90.53;99269.53;1721213;81;21022;-36
2022/09/12 09:33:54;;;;;;;11.25;10.15;;;;;;;17.70;91.12;99270.84;1720892;81;21117;-38
2022/09/12 09:36:42;;;;;;;10.78;9.68;;;;;;;17.80;91.15;99270.86;1717269;81;21011;-39
2022/09/12 09:39:47;;;;;;;12.07;10.88;;;;;;;17.90;91.35;99271.27;1714376;81;21063;-48
2022/09/12 09:42:53;;;;;;;11.40;10.20;;;;;;;17.99;91.32;99269.54;1727864;81;21019;-44
2022/09/12 09:45:23;;;;;;;11.15;9.98;;;;;;;18.01;90.48;99267.67;1731540;81;20984;-36
2022/09/12 09:48:11;;;;;;;13.23;11.43;;;;;;;17.96;90.36;99267.88;1700147;80;21545;-45
2022/09/12 09:50:40;;;;;;;12.23;11.03;;;;;;;17.97;90.50;99264.30;1704206;81;21632;-38
2022/09/12 09:53:15;;;;;;;12.30;11.00;;;;;;;17.98;89.43;99262.53;1725671;81;21070;-37
2022/09/12 09:55:43;;;;;;;13.80;11.18;;;;;;;17.96;88.32;99263.05;1732422;81;21116;-43
2022/09/12 09:58:12;;;;;;;11.90;10.70;;;;;;;17.96;88.32;99259.08;1718130;81;21059;-37
2022/09/12 10:00:41;;;;;;;11.33;10.03;;;;;;;17.98;87.66;99253.27;1689025;81;21586;-36
2022/09/12 10:03:17;;;;;;;11.88;10.78;;;;;;;17.98;86.48;99253.27;1723906;81;21086;-45
2022/09/12 10:05:50;;;;;;;13.00;9.53;;;;;;;17.98;86.70;99256.78;1725654;80;21010;-38
2022/09/12 10:08:34;;;;;;;10.45;9.43;;;;;;;17.98;86.92;99260.74;1733116;81;21168;-46
2022/09/12 10:11:17;;;;;;;9.98;9.00;;;;;;;17.98;85.50;99270.01;1732051;81;21370;-46
2022/09/12 10:13:59;;;;;;;9.88;8.88;;;;;;;17.97;84.90;99264.30;1729571;81;21100;-38
2022/09/12 10:16:32;;;;;;;8.65;7.67;;;;;;;18.02;84.09;99266.27;1725656;81;21530;-38
2022/09/12 10:19:02;;;;;;;10.65;9.65;;;;;;;18.24;82.47;99265.27;1724467;80;21132;-45
2022/09/12 10:21:49;;;;;;;9.25;8.23;;;;;;;18.46;83.19;99259.80;1723200;81;21002;-46
2022/09/12 10:24:42;;;;;;;9.00;8.10;;;;;;;18.62;80.74;99256.80;1725685;80;21065;-45
2022/09/12 10:27:16;;;;;;;8.25;7.45;;;;;;;18.66;79.04;99251.72;1724944;80;21562;-45
2022/09/12 10:30:08;;;;;;;11.85;7.55;;;;;;;18.68;78.79;99251.70;1727131;81;21643;-45
2022/09/12 10:32:41;;;;;;;8.28;7.47;;;;;;;18.75;78.36;99247.80;1725594;80;21026;-45
2022/09/12 10:35:25;;;;;;;8.20;6.95;;;;;;;18.84;77.93;99247.33;1722174;81;21482;-45
2022/09/12 10:38:02;;;;;;;7.85;6.40;;;;;;;18.93;77.57;99251.32;1717873;81;21569;-45
2022/09/12 10:40:33;;;;;;;7.08;6.37;;;;;;;18.92;76.15;99248.29;1727164;81;20978;-45
2022/09/12 10:42:59;;;;;;;7.35;6.25;;;;;;;18.87;75.50;99257.79;1734786;79;21031;-45
2022/09/12 10:45:36;;;;;;;6.92;6.22;;;;;;;18.81;74.80;99252.33;1733866;81;21077;-37
2022/09/12 10:48:30;;;;;;;7.58;6.60;;;;;;;18.76;74.72;99255.67;1735423;81;21029;-37
2022/09/12 10:50:58;;;;;;;6.65;6.05;;;;;;;18.73;74.39;99257.60;1739798;81;21347;-37
2022/09/12 10:53:40;;;;;;;6.47;5.78;;;;;;;18.82;74.79;99257.16;1725124;81;21534;-38
2022/09/12 10:56:12;;;;;;;7.37;6.67;;;;;;;19.21;73.76;99253.42;1721732;81;20942;-46
2022/09/12 10:59:13;;;;;;;9.08;6.87;;;;;;;19.49;72.85;99250.19;1725768;81;21529;-46
2022/09/12 11:02:01;;;;;;;8.85;7.10;;;;;;;19.69;71.43;99250.00;1733569;81;20985;-38
2022/09/12 11:05:09;;;;;;;7.47;6.78;;;;;;;19.74;70.19;99252.41;1734640;81;21009;-37
2022/09/12 11:07:50;;;;;;;10.03;7.30;;;;;;;19.64;70.84;99252.89;1738670;80;21955;-37
2022/09/12 11:10:55;;;;;;;7.95;7.25;;;;;;;19.56;70.47;99248.45;1735965;81;22002;-37
2022/09/12 11:13:53;;;;;;;9.45;6.87;;;;;;;19.44;70.63;99246.92;1736461;80;21623;-37
2022/09/12 11:16:28;;;;;;;8.58;7.70;;;;;;;19.34;71.80;99243.41;1733820;81;21057;-38
2022/09/12 11:19:21;;;;;;;8.50;7.70;;;;;;;19.31;71.46;99241.41;1683518;83;21071;-46
2022/09/12 11:22:00;;;;;;;;;;;;;;;19.25;70.80;99241.27;1680916;84;21296;-45
2022/09/12 11:24:54;;;;;;;8.38;7.62;;;;;;;19.20;70.98;99240.64;1689045;83;20176;-38
2022/09/12 11:28:02;;;;;;;9.33;8.43;;;;;;;19.18;71.37;99234.54;1673910;84;21175;-44
2022/09/12 11:30:34;;;;;;;9.05;7.70;;;;;;;19.19;72.03;99232.73;1672154;84;21456;-38
2022/09/12 11:33:30;;;;;;;9.80;8.88;;;;;;;19.28;71.64;99227.83;1727712;80;21069;-38
2022/09/12 11:35:56;;;;;;;11.75;8.13;;;;;;;19.31;72.13;99223.70;1735066;81;21021;-38
2022/09/12 11:38:50;;;;;;;9.70;8.80;;;;;;;19.34;72.24;99218.22;1689517;81;21101;-46
2022/09/12 11:41:28;;;;;;;10.08;9.08;;;;;;;19.41;71.74;99218.27;1725429;81;20994;-38
2022/09/12 11:44:13;;;;;;;9.25;8.35;;;;;;;19.49;71.86;99216.56;1726629;81;21659;-37
2022/09/12 11:46:42;;;;;;;9.63;8.63;;;;;;;19.56;72.34;99215.29;1725011;81;21636;-37
2022/09/12 11:49:15;;;;;;;8.85;7.95;;;;;;;19.61;72.44;99212.43;1733161;81;21584;-38
2022/09/12 11:52:24;;;;;;;9.45;8.45;;;;;;;19.67;72.57;99205.46;1722553;81;21560;-46
2022/09/12 11:55:19;;;;;;;9.18;8.38;;;;;;;19.70;72.33;99199.12;1681562;81;21352;-45
2022/09/12 11:57:56;;;;;;;9.23;8.33;;;;;;;19.75;72.99;99201.05;1704666;82;21535;-37
2022/09/12 12:00:30;;;;;;;9.08;7.80;;;;;;;19.70;72.94;99201.30;1706776;81;21046;-44
2022/09/12 12:03:05;;;;;;;9.35;8.45;;;;;;;19.63;72.54;99202.11;1723068;81;21477;-45
2022/09/12 12:05:59;;;;;;;8.68;7.78;;;;;;;19.55;72.90;99196.81;1727333;81;21000;-38
2022/09/12 12:08:26;;;;;;;9.00;8.10;;;;;;;19.53;72.89;99198.20;1706211;81;21073;-38
2022/09/12 12:10:56;;;;;;;8.20;7.50;;;;;;;19.55;72.70;99195.02;1702547;81;21578;-38
2022/09/12 12:13:49;;;;;;;9.60;8.70;;;;;;;19.61;72.88;99199.16;1726845;79;21649;-39
2022/09/12 12:16:33;;;;;;;7.90;7.12;;;;;;;19.64;71.61;99196.33;1745245;81;21054;-38
2022/09/12 12:19:04;;;;;;;6.03;5.53;;;;;;;19.68;70.55;99193.05;1739161;81;21566;-46
2022/09/12 12:21:36;;;;;;;5.90;5.40;;;;;;;19.80;68.75;99191.90;1674058;83;21430;-46
2022/09/12 12:24:17;;;;;;;6.30;5.78;;;;;;;19.90;65.22;99190.45;1670006;84;21040;-46
2022/09/12 12:27:04;;;;;;;5.47;4.97;;;;;;;19.91;65.10;99195.29;1678040;83;21393;-45
2022/09/12 12:29:37;;;;;;;8.15;5.50;;;;;;;19.86;64.57;99193.36;1640623;85;21149;-53
2022/09/12 12:32:09;;;;;;;5.97;5.47;;;;;;;19.80;64.57;99194.55;1637280;85;22043;-46
2022/09/12 12:34:39;;;;;;;5.28;4.78;;;;;;;19.74;64.85;99191.38;1638507;85;21061;-46
2022/09/12 12:37:30;;;;;;;5.12;4.72;;;;;;;19.71;65.52;99198.17;1643151;85;21002;-46
2022/09/12 12:39:59;;;;;;;5.15;4.65;;;;;;;19.64;63.92;99192.34;1642713;85;21539;-46
2022/09/12 12:42:37;;;;;;;4.33;3.35;;;;;;;19.58;64.58;99186.91;1643954;87;21099;-46
2022/09/12 12:45:32;;;;;;;4.45;4.10;;;;;;;19.61;62.94;99190.73;1655131;85;21074;-46
2022/09/12 12:48:01;;;;;;;4.12;3.83;;;;;;;19.64;62.48;99193.67;1642904;87;21039;-46
2022/09/12 12:50:28;;;;;;;5.62;3.70;;;;;;;19.65;61.81;99188.75;1645169;85;21553;-46
2022/09/12 12:53:04;;;;;;;3.95;3.55;;;;;;;19.65;61.51;99195.38;1648880;85;21146;-45
2022/09/12 12:55:44;;;;;;;7.33;4.87;;;;;;;19.63;61.99;99195.95;1648121;86;21063;-38
2022/09/12 12:58:37;;;;;;;4.58;4.17;;;;;;;19.59;62.15;99189.08;1643683;85;21089;-39
2022/09/12 13:01:12;;;;;;;4.97;4.45;;;;;;;19.55;62.84;99188.38;1678017;84;21624;-39
2022/09/12 13:03:53;;;;;;;4.70;4.30;;;;;;;19.53;62.78;99182.75;1657313;84;21547;-38
2022/09/12 13:06:35;;;;;;;5.65;5.15;;;;;;;19.50;63.29;99186.44;1676137;83;20991;-36
2022/09/12 13:09:05;;;;;;;;;;;;;;;19.42;62.84;99185.98;1710486;81;21014;-46
2022/09/12 13:11:35;;;;;;;5.80;5.30;;;;;;;19.39;63.87;99179.53;1709365;82;20113;-39
2022/09/12 13:14:08;;;;;;;5.33;4.90;;;;;;;19.34;64.90;99177.12;1707590;82;21085;-37
2022/09/12 13:16:41;;;;;;;5.23;4.73;;;;;;;19.31;65.26;99173.80;1722890;81;21559;-44
2022/09/12 13:19:18;;;;;;;5.03;4.62;;;;;;;19.28;65.94;99183.22;1722295;82;21073;-52
2022/09/12 13:22:04;;;;;;;5.40;4.90;;;;;;;19.29;66.52;99185.78;1719568;81;21522;-45
2022/09/12 13:24:30;;;;;;;4.37;4.08;;;;;;;19.26;65.42;99185.97;1719703;81;20995;-45
2022/09/12 13:26:57;;;;;;;5.15;4.42;;;;;;;19.25;65.75;99186.02;1742735;81;21058;-38
2022/09/12 13:29:26;;;;;;;4.90;3.25;;;;;;;19.26;64.44;99186.44;1730304;81;20979;-46
2022/09/12 13:31:58;;;;;;;3.58;3.10;;;;;;;19.28;62.99;99184.55;1757208;81;21848;-45
2022/09/12 13:34:38;;;;;;;4.22;2.55;;;;;;;19.39;62.96;99184.83;1727251;81;21530;-45
2022/09/12 13:37:22;;;;;;;2.92;2.60;;;;;;;19.59;61.04;99189.94;1757824;80;21058;-45
2022/09/12 13:40:02;;;;;;;2.45;2.25;;;;;;;19.77;59.12;99184.13;1758067;81;21617;-46
2022/09/12 13:42:48;;;;;;;3.10;2.40;;;;;;;19.97;58.38;99180.82;1758520;80;21050;-46
2022/09/12 13:45:23;;;;;;;2.92;2.70;;;;;;;20.17;58.21;99181.87;1751684;81;21050;-46
2022/09/12 13:47:54;;;;;;;3.77;2.37;;;;;;;20.28;57.30;99190.55;1758663;80;21090;-46
2022/09/12 13:50:23;;;;;;;2.75;2.40;;;;;;;20.33;56.98;99171.23;1758904;81;21003;-37
2022/09/12 13:53:03;;;;;;;4.87;2.30;;;;;;;20.34;55.74;99182.23;1758794;80;21058;-45
2022/09/12 13:55:38;;;;;;;2.25;2.05;;;;;;;20.31;54.41;99174.45;1754699;81;21030;-38
2022/09/12 13:58:14;;;;;;;2.37;2.17;;;;;;;20.26;54.46;99174.72;1740479;81;21070;-38
2022/09/12 14:00:41;;;;;;;2.20;2.10;;;;;;;20.24;54.25;99174.43;1655713;84;21009;-40
2022/09/12 14:06:10;;;;;;;4.33;2.77;;;;;;;20.08;53.53;99174.44;1576514;91;21162;-45
2022/09/12 14:08:40;;;;;;;3.87;2.52;;;;;;;19.91;55.60;99178.04;1576604;91;21106;-45
2022/09/12 14:11:09;;;;;;;2.67;2.47;;;;;;;19.81;56.71;99178.16;1576681;91;21094;-38
2022/09/12 14:13:40;;;;;;;2.72;2.50;;;;;;;19.73;57.78;99187.88;1575716;91;21744;-46
2022/09/12 14:16:09;;;;;;;4.55;2.20;;;;;;;19.59;58.91;99181.12;1575688;91;21018;-38
2022/09/12 14:18:37;;;;;;;3.27;2.77;;;;;;;19.40;59.57;99189.20;1576550;90;21678;-39
2022/09/12 14:21:33;;;;;;;2.65;2.45;;;;;;;19.20;60.46;99179.66;1576370;91;21016;-39
2022/09/12 14:24:00;;;;;;;2.52;2.33;;;;;;;19.03;61.21;99187.64;1576560;91;21127;-46
2022/09/12 14:49:44;;;;;;;4.00;2.75;;;;;;;17.34;69.59;99199.33;1725099;83;21201;-38
2022/09/12 14:52:28;;;;;;;4.20;2.62;;;;;;;17.19;70.26;99198.21;1733702;81;21443;-45
2022/09/12 14:55:01;;;;;;;3.98;2.62;;;;;;;17.13;70.72;99200.66;1724320;83;21051;-45
2022/09/12 14:57:37;;;;;;;4.90;2.60;;;;;;;17.10;69.89;99203.89;1733776;83;21063;-45
2022/09/12 15:00:19;;;;;;;3.27;2.77;;;;;;;17.03;69.79;99206.80;1733993;82;21538;-38
2022/09/12 15:02:49;;;;;;;3.47;2.77;;;;;;;16.99;69.90;99200.42;1733933;83;21070;-38
2022/09/12 15:05:25;;;;;;;4.90;2.65;;;;;;;16.91;69.68;99203.38;1733298;82;21606;-38
2022/09/12 15:08:00;;;;;;;3.52;2.92;;;;;;;16.85;69.30;99201.45;1733802;83;21070;-45
2022/09/12 15:10:36;;;;;;;2.70;2.40;;;;;;;16.77;69.50;99206.22;1733732;82;21051;-38
2022/09/12 15:13:15;;;;;;;3.25;2.75;;;;;;;16.67;69.30;99199.11;1733631;82;21103;-45
2022/09/12 15:15:44;;;;;;;4.55;3.00;;;;;;;16.57;69.53;99197.77;1733871;82;21102;-38
